Time;durP1;ratioP1;P1;durP2;ratioP2;P2;SDS_P1;SDS_P2;PMS_P1;PMS_P2;Temp;Humidity;BMP_temperature;BMP_pressure;BME280_temperature;BME280_humidity;BME280_pressure;Samples;Min_cycle;Max_cycle;Signal;HPM_P1;HPM_P2
2021/12/28 00:00:01;;;;;;;6.70;3.27;;;6.00;99.90;;;;;;5124499;28;20230;-66
2021/12/28 00:02:27;;;;;;;4.93;2.47;;;6.00;99.90;;;;;;5125118;28;20286;-66
2021/12/28 00:04:54;;;;;;;5.33;2.30;;;6.00;99.90;;;;;;5124587;28;20226;-67
2021/12/28 00:07:21;;;;;;;4.17;2.73;;;6.10;99.90;;;;;;5124941;28;20674;-66
2021/12/28 00:09:48;;;;;;;4.00;2.33;;;6.10;99.90;;;;;;5124240;28;20259;-66
2021/12/28 00:12:16;;;;;;;3.63;2.03;;;6.10;99.90;;;;;;5124908;28;20206;-66
2021/12/28 00:14:51;;;;;;;5.70;2.73;;;6.10;99.90;;;;;;5124148;28;20292;-66
2021/12/28 00:20:03;;;;;;;5.93;3.00;;;6.10;99.90;;;;;;5124614;28;20253;-67
2021/12/28 00:22:30;;;;;;;5.60;2.67;;;6.10;99.90;;;;;;5125096;28;20200;-66
2021/12/28 00:24:56;;;;;;;5.70;2.87;;;6.10;99.90;;;;;;5123473;28;20492;-66
2021/12/28 00:27:25;;;;;;;5.93;2.70;;;6.10;99.90;;;;;;5124680;28;20211;-65
2021/12/28 00:29:51;;;;;;;4.77;2.90;;;6.10;99.90;;;;;;5124076;28;20326;-66
2021/12/28 00:32:18;;;;;;;7.37;2.90;;;6.10;99.90;;;;;;5125009;28;20230;-66
2021/12/28 00:34:45;;;;;;;5.20;2.63;;;6.10;99.90;;;;;;5124386;28;20223;-67
2021/12/28 00:37:12;;;;;;;5.47;2.90;;;6.20;99.90;;;;;;5125634;28;20272;-65
2021/12/28 00:39:39;;;;;;;11.57;2.93;;;6.20;99.90;;;;;;5127436;28;20231;-66
2021/12/28 00:42:08;;;;;;;4.77;2.97;;;6.20;99.90;;;;;;5128328;28;20303;-66
2021/12/28 00:44:36;;;;;;;4.80;3.17;;;6.30;99.90;;;;;;5127509;28;20206;-67
2021/12/28 00:47:03;;;;;;;5.70;3.00;;;6.30;99.90;;;;;;5128328;28;20207;-66
2021/12/28 00:49:30;;;;;;;4.90;3.00;;;6.30;99.90;;;;;;5127854;28;20233;-66
2021/12/28 00:51:57;;;;;;;7.47;2.83;;;6.30;99.90;;;;;;5128059;28;20227;-66
2021/12/28 00:54:23;;;;;;;3.80;2.53;;;6.30;99.90;;;;;;5126676;28;20764;-70
2021/12/28 00:56:50;;;;;;;5.10;2.70;;;6.30;99.90;;;;;;5128192;28;20275;-67
2021/12/28 00:59:17;;;;;;;4.67;3.70;;;6.40;99.90;;;;;;5127212;28;20231;-66
2021/12/28 01:01:47;;;;;;;5.67;3.03;;;6.40;99.90;;;;;;5127806;28;20195;-67
2021/12/28 01:04:14;;;;;;;3.93;2.70;;;6.40;99.90;;;;;;5127288;28;20200;-66
2021/12/28 01:06:41;;;;;;;5.00;3.23;;;6.30;99.90;;;;;;5128093;28;20563;-66
2021/12/28 01:09:08;;;;;;;5.13;2.80;;;6.30;99.90;;;;;;5126983;28;20264;-66
2021/12/28 01:11:35;;;;;;;3.33;1.97;;;6.20;99.90;;;;;;5127956;28;20202;-67
2021/12/28 01:14:02;;;;;;;2.63;1.93;;;6.20;99.90;;;;;;5126602;28;20229;-66
2021/12/28 01:16:28;;;;;;;3.47;1.93;;;6.20;99.90;;;;;;5127866;28;20203;-67
2021/12/28 01:18:57;;;;;;;4.87;2.70;;;6.10;99.90;;;;;;5127402;28;20211;-65
2021/12/28 01:21:23;;;;;;;4.87;2.63;;;6.20;99.90;;;;;;5127495;28;20295;-68
2021/12/28 01:23:50;;;;;;;3.93;3.00;;;6.20;99.90;;;;;;5126134;28;20200;-66
2021/12/28 01:26:17;;;;;;;4.13;2.33;;;6.30;99.90;;;;;;5127454;28;20263;-66
2021/12/28 01:28:44;;;;;;;3.97;3.07;;;6.30;99.90;;;;;;5126540;28;20199;-66
2021/12/28 01:31:11;;;;;;;3.90;2.90;;;6.40;99.90;;;;;;5127442;28;20218;-68
2021/12/28 01:33:38;;;;;;;7.43;2.60;;;6.40;99.90;;;;;;5126866;28;20224;-68
2021/12/28 01:36:06;;;;;;;4.47;2.30;;;6.40;99.90;;;;;;5127134;28;20199;-66
2021/12/28 01:38:33;;;;;;;3.40;2.33;;;6.40;99.90;;;;;;5126574;28;20203;-67
2021/12/28 01:41:00;;;;;;;4.87;2.60;;;6.40;99.90;;;;;;5126865;28;20218;-67
2021/12/28 01:43:26;;;;;;;3.50;2.07;;;6.50;99.90;;;;;;5126422;28;20199;-68
2021/12/28 01:45:56;;;;;;;4.30;2.47;;;6.50;99.90;;;;;;5126890;28;20284;-65
2021/12/28 01:48:26;;;;;;;3.40;2.67;;;6.50;99.90;;;;;;5126534;28;20529;-66
2021/12/28 01:50:56;;;;;;;3.00;1.77;;;6.50;99.90;;;;;;5127002;28;20227;-67
2021/12/28 01:53:25;;;;;;;6.03;2.70;;;6.50;99.90;;;;;;5125539;28;20310;-66
2021/12/28 01:55:56;;;;;;;5.10;2.63;;;6.50;99.90;;;;;;5127267;28;20306;-65
2021/12/28 01:58:23;;;;;;;5.47;2.93;;;6.60;99.90;;;;;;5126267;28;20271;-67
2021/12/28 02:00:51;;;;;;;7.23;3.17;;;6.60;99.90;;;;;;5126601;28;20367;-66
2021/12/28 02:03:20;;;;;;;5.23;2.63;;;6.60;99.90;;;;;;5126073;28;20214;-66
2021/12/28 02:05:47;;;;;;;5.77;3.30;;;6.60;99.90;;;;;;5126336;28;20204;-66
2021/12/28 02:08:14;;;;;;;9.43;3.30;;;6.70;99.90;;;;;;5125645;28;20271;-68
2021/12/28 02:10:45;;;;;;;5.57;2.87;;;6.70;99.90;;;;;;5126251;28;20214;-66
2021/12/28 02:13:12;;;;;;;4.97;2.77;;;6.70;99.90;;;;;;5125412;28;20294;-66
2021/12/28 02:15:39;;;;;;;7.57;3.53;;;6.70;99.90;;;;;;5126528;28;20226;-66
2021/12/28 02:18:10;;;;;;;6.63;3.43;;;6.70;99.90;;;;;;5125438;28;20203;-66
2021/12/28 02:20:38;;;;;;;4.77;2.60;;;6.70;99.90;;;;;;5125639;28;20644;-66
2021/12/28 02:23:06;;;;;;;4.43;2.50;;;6.70;99.90;;;;;;5125055;28;20286;-66
2021/12/28 02:25:35;;;;;;;6.03;3.23;;;6.80;99.90;;;;;;5125620;28;20200;-67
2021/12/28 02:28:05;;;;;;;6.63;3.90;;;6.80;99.90;;;;;;5122280;28;20203;-66
2021/12/28 02:30:32;;;;;;;6.30;2.60;;;6.80;99.90;;;;;;5112816;28;20323;-66
2021/12/28 02:32:59;;;;;;;6.27;3.17;;;6.80;99.90;;;;;;5120504;28;20195;-66
2021/12/28 02:35:27;;;;;;;4.80;2.83;;;6.80;99.90;;;;;;5125267;28;20220;-66
2021/12/28 02:37:56;;;;;;;6.93;3.23;;;6.80;99.90;;;;;;5124674;28;20214;-66
2021/12/28 02:40:25;;;;;;;5.67;2.83;;;6.80;99.90;;;;;;5125447;28;20210;-66
2021/12/28 02:42:52;;;;;;;5.53;3.20;;;6.80;99.90;;;;;;5125132;28;20218;-66
2021/12/28 02:45:22;;;;;;;6.50;3.33;;;6.80;99.90;;;;;;5126068;28;20210;-69
2021/12/28 02:47:50;;;;;;;6.63;3.70;;;6.80;99.90;;;;;;5125498;28;20283;-66
2021/12/28 02:50:20;;;;;;;4.53;2.73;;;6.80;99.90;;;;;;5125582;28;20207;-66
2021/12/28 02:52:47;;;;;;;9.57;3.87;;;6.80;99.90;;;;;;5123511;28;20259;-66
2021/12/28 02:55:19;;;;;;;7.60;3.80;;;6.80;99.90;;;;;;5125018;28;20230;-65
2021/12/28 02:57:48;;;;;;;5.07;3.03;;;6.80;99.90;;;;;;5122577;28;20199;-67
2021/12/28 03:00:28;;;;;;;8.13;3.60;;;6.80;99.90;;;;;;5124688;28;20216;-66
2021/12/28 03:02:55;;;;;;;7.37;3.97;;;6.80;99.90;;;;;;5124323;28;20195;-66
2021/12/28 03:05:22;;;;;;;6.50;3.10;;;6.80;99.90;;;;;;5125220;28;20259;-66
2021/12/28 03:07:49;;;;;;;10.23;3.47;;;6.80;99.90;;;;;;5124786;28;20230;-66
2021/12/28 03:10:17;;;;;;;4.77;2.93;;;6.80;99.90;;;;;;5125487;28;20286;-66
2021/12/28 03:12:44;;;;;;;4.57;2.90;;;6.80;99.90;;;;;;5125150;28;20234;-66
2021/12/28 03:15:11;;;;;;;7.03;2.83;;;6.80;99.90;;;;;;5125795;28;20298;-66
2021/12/28 03:17:39;;;;;;;6.80;3.27;;;6.80;99.90;;;;;;5125518;28;20260;-66
2021/12/28 03:20:07;;;;;;;5.63;2.53;;;6.80;99.90;;;;;;5125464;28;20291;-66
2021/12/28 03:22:37;;;;;;;6.80;3.67;;;6.80;99.90;;;;;;5125417;28;20282;-66
2021/12/28 03:25:05;;;;;;;6.37;3.40;;;6.90;99.90;;;;;;5124252;28;20204;-67
2021/12/28 03:27:34;;;;;;;6.60;3.23;;;6.80;99.90;;;;;;5125709;28;20234;-66
2021/12/28 03:30:01;;;;;;;7.57;4.10;;;6.80;99.90;;;;;;5124652;28;20290;-67
2021/12/28 03:32:28;;;;;;;5.77;3.70;;;6.80;99.90;;;;;;5125419;28;20263;-66
2021/12/28 03:34:55;;;;;;;7.90;4.00;;;6.90;99.90;;;;;;5125269;28;20219;-67
2021/12/28 03:37:22;;;;;;;5.87;3.10;;;6.80;99.90;;;;;;5125464;28;20204;-67
2021/12/28 03:39:49;;;;;;;6.50;3.10;;;6.80;99.90;;;;;;5124455;28;20267;-66
2021/12/28 03:42:16;;;;;;;7.13;3.40;;;6.80;99.90;;;;;;5125399;28;20231;-66
2021/12/28 03:44:44;;;;;;;6.63;3.10;;;6.90;99.90;;;;;;5124856;28;20236;-67
2021/12/28 03:47:11;;;;;;;4.00;3.00;;;6.80;99.90;;;;;;5127341;28;20250;-66
2021/12/28 03:49:38;;;;;;;7.70;2.87;;;6.90;99.90;;;;;;5134540;28;20191;-67
2021/12/28 03:52:06;;;;;;;4.37;2.57;;;6.90;99.90;;;;;;5134553;28;20245;-66
2021/12/28 03:54:33;;;;;;;7.20;3.70;;;6.90;99.90;;;;;;5131929;28;20207;-66
2021/12/28 03:57:01;;;;;;;6.63;2.83;;;6.90;99.90;;;;;;5135295;28;20295;-67
2021/12/28 03:59:28;;;;;;;7.03;3.63;;;6.90;99.90;;;;;;5136221;28;20223;-66
2021/12/28 04:01:56;;;;;;;9.60;3.00;;;6.90;99.90;;;;;;5131437;28;20734;-66
2021/12/28 04:04:23;;;;;;;5.67;3.80;;;6.80;99.90;;;;;;5131465;28;20259;-66
2021/12/28 04:06:50;;;;;;;6.00;2.97;;;6.80;99.90;;;;;;5138699;28;20251;-66
2021/12/28 04:09:23;;;;;;;6.70;3.00;;;6.90;99.90;;;;;;5136432;28;20220;-66
2021/12/28 04:11:50;;;;;;;5.63;2.97;;;6.80;99.90;;;;;;5133978;28;20315;-66
2021/12/28 04:14:17;;;;;;;6.30;3.17;;;6.80;99.90;;;;;;5137416;27;20749;-66
2021/12/28 04:16:44;;;;;;;4.50;2.57;;;6.80;99.90;;;;;;5138343;27;20219;-66
2021/12/28 04:19:12;;;;;;;4.47;2.80;;;6.80;99.90;;;;;;5139576;27;20225;-66
2021/12/28 04:21:39;;;;;;;9.67;3.63;;;6.80;99.90;;;;;;5138544;27;20601;-66
2021/12/28 04:24:06;;;;;;;5.27;2.93;;;6.80;99.90;;;;;;5136284;27;20195;-66
2021/12/28 04:26:33;;;;;;;4.97;3.20;;;6.80;99.90;;;;;;5137733;27;20213;-66
2021/12/28 04:29:00;;;;;;;5.53;3.80;;;6.80;99.90;;;;;;5137518;27;20654;-67
2021/12/28 04:31:27;;;;;;;9.23;2.63;;;6.80;99.90;;;;;;5136590;27;20536;-68
2021/12/28 04:33:54;;;;;;;5.00;3.00;;;6.80;99.90;;;;;;5133326;27;20678;-66
2021/12/28 04:36:22;;;;;;;5.47;3.10;;;6.80;99.90;;;;;;5128723;28;20213;-67
2021/12/28 04:38:49;;;;;;;4.23;2.57;;;6.80;99.90;;;;;;5127860;28;20206;-67
2021/12/28 04:41:16;;;;;;;5.80;3.60;;;6.80;99.90;;;;;;5128275;28;20206;-67
2021/12/28 04:43:45;;;;;;;10.40;3.13;;;6.80;99.90;;;;;;5127697;28;20291;-68
2021/12/28 04:46:12;;;;;;;4.87;2.93;;;6.80;99.90;;;;;;5128474;28;20196;-67
2021/12/28 04:48:39;;;;;;;5.43;3.00;;;6.90;99.90;;;;;;5128181;28;20230;-67
2021/12/28 04:51:06;;;;;;;4.67;2.77;;;6.90;99.90;;;;;;5128144;28;20267;-67
2021/12/28 04:53:35;;;;;;;4.70;2.60;;;6.90;99.90;;;;;;5127056;28;20291;-67
2021/12/28 04:56:02;;;;;;;3.60;2.63;;;6.80;99.90;;;;;;5128241;28;20248;-68
2021/12/28 04:58:28;;;;;;;5.33;2.37;;;6.90;99.90;;;;;;5127466;28;20214;-66
2021/12/28 05:00:56;;;;;;;5.33;3.20;;;6.80;99.90;;;;;;5127971;28;20278;-67
2021/12/28 05:03:23;;;;;;;4.30;2.23;;;6.80;99.90;;;;;;5127693;28;20199;-66
2021/12/28 05:05:52;;;;;;;5.57;2.80;;;6.80;99.90;;;;;;5127914;28;20649;-67
2021/12/28 05:08:21;;;;;;;4.17;2.30;;;6.80;99.90;;;;;;5127225;28;20200;-67
2021/12/28 05:10:50;;;;;;;2.50;2.03;;;6.80;99.90;;;;;;5127882;28;20279;-67
2021/12/28 05:13:17;;;;;;;7.27;2.57;;;6.80;99.90;;;;;;5126902;28;20206;-66
2021/12/28 05:15:45;;;;;;;4.57;2.80;;;6.80;99.90;;;;;;5127905;28;20306;-67
2021/12/28 05:18:13;;;;;;;4.80;2.53;;;6.90;99.90;;;;;;5127659;28;20256;-67
2021/12/28 05:20:41;;;;;;;5.20;2.90;;;6.90;99.90;;;;;;5127711;28;20210;-67
2021/12/28 05:23:08;;;;;;;3.93;2.83;;;6.90;99.90;;;;;;5126581;28;20204;-68
2021/12/28 05:25:36;;;;;;;3.27;2.10;;;6.90;99.90;;;;;;5126802;28;20271;-68
2021/12/28 05:28:05;;;;;;;3.00;2.03;;;6.90;99.90;;;;;;5126439;28;20223;-67
2021/12/28 05:30:33;;;;;;;2.67;1.50;;;6.90;99.90;;;;;;5127144;28;20232;-68
2021/12/28 05:33:00;;;;;;;2.87;1.90;;;6.90;99.90;;;;;;5126855;28;20245;-68
2021/12/28 05:35:27;;;;;;;1.50;1.10;;;6.90;99.90;;;;;;5127670;28;20379;-67
2021/12/28 05:37:54;;;;;;;1.57;1.47;;;6.90;99.90;;;;;;5126769;28;20223;-67
2021/12/28 05:40:21;;;;;;;1.83;1.40;;;6.90;99.90;;;;;;5127474;28;20199;-68
2021/12/28 05:42:48;;;;;;;2.17;1.40;;;6.90;99.90;;;;;;5127298;28;20269;-66
2021/12/28 05:45:16;;;;;;;2.50;2.00;;;6.90;99.90;;;;;;5127208;28;20199;-68
2021/12/28 05:47:43;;;;;;;1.83;1.03;;;6.90;99.90;;;;;;5126969;28;20529;-68
2021/12/28 05:50:11;;;;;;;1.27;0.90;;;6.90;99.90;;;;;;5126958;28;20235;-67
2021/12/28 05:52:38;;;;;;;0.63;0.63;;;6.90;99.90;;;;;;5127260;28;20235;-67
2021/12/28 05:55:06;;;;;;;1.23;0.90;;;6.90;99.90;;;;;;5126054;28;20286;-67
2021/12/28 05:57:33;;;;;;;1.27;1.07;;;6.90;99.90;;;;;;5127264;28;20268;-67
2021/12/28 06:00:00;;;;;;;0.80;0.80;;;6.90;99.90;;;;;;5126268;28;20271;-67
2021/12/28 06:02:28;;;;;;;0.60;0.60;;;6.90;99.90;;;;;;5127125;28;20291;-68
2021/12/28 06:04:55;;;;;;;1.03;0.87;;;6.90;99.90;;;;;;5126894;28;20226;-68
2021/12/28 06:07:27;;;;;;;1.67;0.83;;;6.90;99.90;;;;;;5127308;28;20202;-68
2021/12/28 06:09:54;;;;;;;1.43;1.10;;;6.90;99.90;;;;;;5126053;28;20200;-67
2021/12/28 06:12:21;;;;;;;0.90;0.80;;;6.90;99.90;;;;;;5127150;28;20291;-68
2021/12/28 06:14:48;;;;;;;0.80;0.80;;;6.90;99.90;;;;;;5126123;28;20216;-68
2021/12/28 06:17:15;;;;;;;1.63;0.90;;;6.90;99.90;;;;;;5126861;28;20219;-68
2021/12/28 06:19:43;;;;;;;0.87;0.87;;;6.90;99.90;;;;;;5126628;28;20226;-67
2021/12/28 06:22:10;;;;;;;0.77;0.73;;;6.90;99.90;;;;;;5126358;28;20295;-68
2021/12/28 06:24:37;;;;;;;0.90;0.80;;;6.90;99.90;;;;;;5125147;28;20270;-67
2021/12/28 06:27:04;;;;;;;1.23;0.80;;;6.90;99.90;;;;;;5126885;28;20229;-67
2021/12/28 06:29:31;;;;;;;0.97;0.93;;;6.90;99.90;;;;;;5125614;28;20270;-68
2021/12/28 06:31:58;;;;;;;2.53;0.80;;;6.90;99.90;;;;;;5126367;28;20291;-67
2021/12/28 06:34:25;;;;;;;0.70;0.70;;;6.90;99.90;;;;;;5125448;28;20227;-67
2021/12/28 06:36:53;;;;;;;1.53;0.87;;;6.90;99.90;;;;;;5126634;28;20306;-67
2021/12/28 06:39:20;;;;;;;1.10;1.00;;;6.90;99.90;;;;;;5125546;28;20195;-68
2021/12/28 06:41:47;;;;;;;0.97;0.90;;;6.90;99.90;;;;;;5124755;28;20610;-67
2021/12/28 06:44:14;;;;;;;2.37;1.17;;;6.90;99.90;;;;;;5123479;28;20223;-66
2021/12/28 06:46:40;;;;;;;4.83;1.50;;;6.90;99.90;;;;;;5124067;28;20187;-67
2021/12/28 06:49:09;;;;;;;1.90;1.30;;;6.90;99.90;;;;;;5123538;28;20218;-67
2021/12/28 06:51:36;;;;;;;1.60;1.43;;;6.90;99.90;;;;;;5121809;28;20264;-67
2021/12/28 06:54:04;;;;;;;1.00;0.90;;;6.90;99.90;;;;;;5122469;28;20202;-65
2021/12/28 06:56:32;;;;;;;0.77;0.77;;;6.90;99.90;;;;;;5123323;28;20212;-66
2021/12/28 06:58:58;;;;;;;2.07;1.07;;;6.90;99.90;;;;;;5123077;28;20288;-67
2021/12/28 07:01:25;;;;;;;1.20;0.97;;;6.90;99.90;;;;;;5123365;28;20283;-67
2021/12/28 07:03:53;;;;;;;0.80;0.80;;;6.90;99.90;;;;;;5123236;28;20200;-64
2021/12/28 07:06:21;;;;;;;0.90;0.80;;;6.90;99.90;;;;;;5123788;28;20285;-67
2021/12/28 07:08:48;;;;;;;1.60;0.80;;;6.90;99.90;;;;;;5122491;28;20194;-66
2021/12/28 07:11:17;;;;;;;0.97;0.60;;;6.90;99.90;;;;;;5123242;28;20244;-66
2021/12/28 07:13:44;;;;;;;0.70;0.70;;;6.90;99.90;;;;;;5122707;28;20278;-66
2021/12/28 07:16:10;;;;;;;0.83;0.80;;;6.90;99.90;;;;;;5122746;28;20208;-69
2021/12/28 07:18:37;;;;;;;0.50;0.50;;;6.90;99.90;;;;;;5121484;28;20558;-67
2021/12/28 07:21:04;;;;;;;1.17;1.07;;;6.90;99.90;;;;;;5122978;28;20388;-67
2021/12/28 07:23:31;;;;;;;1.50;0.90;;;6.90;99.90;;;;;;5121871;28;20204;-67
2021/12/28 07:25:58;;;;;;;3.73;0.93;;;6.90;99.90;;;;;;5123630;28;20734;-67
2021/12/28 07:28:26;;;;;;;0.93;0.90;;;6.90;99.90;;;;;;5124931;28;20271;-67
2021/12/28 07:30:54;;;;;;;1.30;1.20;;;6.90;99.90;;;;;;5124198;28;20228;-66
2021/12/28 07:33:21;;;;;;;1.00;0.90;;;6.90;99.90;;;;;;5125213;28;20207;-66
2021/12/28 07:35:48;;;;;;;0.60;0.60;;;6.90;99.90;;;;;;5125144;28;20223;-65
2021/12/28 07:38:15;;;;;;;0.80;0.80;;;6.90;99.90;;;;;;5124777;28;20207;-65
2021/12/28 07:40:42;;;;;;;0.93;0.83;;;6.90;99.90;;;;;;5125293;28;20299;-65
2021/12/28 07:43:09;;;;;;;0.50;0.50;;;6.90;99.90;;;;;;5124487;28;20227;-65
2021/12/28 07:45:37;;;;;;;0.53;0.53;;;6.90;99.90;;;;;;5125182;28;20200;-65
2021/12/28 07:48:04;;;;;;;0.60;0.60;;;6.90;99.90;;;;;;5129625;28;20231;-65
2021/12/28 07:50:31;;;;;;;0.63;0.63;;;6.90;99.90;;;;;;5129583;28;20238;-67
2021/12/28 07:52:58;;;;;;;0.67;0.67;;;6.90;99.90;;;;;;5127977;28;20220;-65
2021/12/28 07:55:25;;;;;;;1.90;0.60;;;6.90;99.90;;;;;;5128361;28;20294;-64
2021/12/28 07:57:52;;;;;;;1.00;0.70;;;6.90;99.90;;;;;;5129199;28;20242;-64
2021/12/28 08:00:22;;;;;;;1.20;0.87;;;6.90;99.90;;;;;;5128563;28;20234;-65
2021/12/28 08:02:51;;;;;;;0.90;0.90;;;6.90;99.90;;;;;;5126386;28;20192;-64
2021/12/28 08:05:18;;;;;;;0.80;0.80;;;6.90;99.90;;;;;;5128702;28;20286;-65
2021/12/28 08:07:45;;;;;;;0.80;0.80;;;6.90;99.90;;;;;;5127692;28;20287;-63
2021/12/28 08:10:13;;;;;;;0.60;0.60;;;7.00;99.90;;;;;;5127758;28;20223;-65
2021/12/28 08:12:40;;;;;;;0.93;0.83;;;7.00;99.90;;;;;;5127721;28;20610;-64
2021/12/28 08:15:08;;;;;;;0.80;0.80;;;7.00;99.90;;;;;;5127133;28;20192;-65
2021/12/28 08:17:36;;;;;;;0.70;0.70;;;7.00;99.90;;;;;;5128200;28;20257;-66
2021/12/28 08:20:05;;;;;;;0.60;0.60;;;7.00;99.90;;;;;;5128627;28;20609;-67
2021/12/28 08:22:32;;;;;;;1.07;0.80;;;7.00;99.90;;;;;;5129165;28;20226;-65
2021/12/28 08:24:59;;;;;;;0.70;0.70;;;7.00;99.90;;;;;;5127277;28;20204;-66
2021/12/28 08:27:27;;;;;;;1.20;0.63;;;7.00;99.90;;;;;;5128118;28;20219;-65
2021/12/28 08:29:53;;;;;;;1.03;1.00;;;7.00;99.90;;;;;;5127359;28;20224;-65
2021/12/28 08:32:20;;;;;;;2.67;1.07;;;7.00;99.90;;;;;;5125518;28;20192;-64
2021/12/28 08:34:47;;;;;;;1.43;1.03;;;7.00;99.90;;;;;;5128189;28;20238;-65
2021/12/28 08:37:17;;;;;;;1.07;0.97;;;7.00;99.90;;;;;;5128240;28;20212;-66
2021/12/28 08:39:44;;;;;;;1.30;1.07;;;7.00;99.90;;;;;;5127502;28;20191;-64
2021/12/28 08:42:11;;;;;;;1.77;1.27;;;7.00;99.90;;;;;;5128015;28;20294;-66
2021/12/28 08:44:38;;;;;;;2.50;1.53;;;7.00;99.90;;;;;;5127355;28;20432;-66
2021/12/28 08:47:05;;;;;;;1.20;1.07;;;7.00;99.90;;;;;;5128197;28;20259;-67
2021/12/28 08:49:32;;;;;;;0.90;0.90;;;7.00;99.90;;;;;;5128254;28;20199;-66
2021/12/28 08:51:59;;;;;;;2.50;1.20;;;7.00;99.90;;;;;;5124239;28;20259;-66
2021/12/28 08:54:27;;;;;;;1.37;1.23;;;7.00;99.90;;;;;;5127023;28;20206;-67
2021/12/28 08:56:54;;;;;;;1.20;1.10;;;7.00;99.90;;;;;;5128532;28;20302;-66
2021/12/28 08:59:21;;;;;;;0.70;0.70;;;7.00;99.90;;;;;;5126940;28;20204;-67
2021/12/28 09:01:49;;;;;;;0.50;0.50;;;7.00;99.90;;;;;;5128066;28;20274;-67
2021/12/28 09:04:17;;;;;;;0.40;0.40;;;7.00;99.90;;;;;;5127924;28;20294;-67
2021/12/28 09:06:44;;;;;;;0.53;0.53;;;7.10;99.90;;;;;;5128375;28;20594;-67
2021/12/28 09:09:11;;;;;;;0.40;0.40;;;7.10;99.90;;;;;;5127423;28;20199;-67
2021/12/28 09:11:40;;;;;;;0.50;0.50;;;7.10;99.90;;;;;;5128087;28;20294;-67
2021/12/28 09:14:06;;;;;;;0.50;0.50;;;7.10;99.90;;;;;;5126967;28;20231;-67
2021/12/28 09:16:33;;;;;;;0.20;0.20;;;7.10;99.90;;;;;;5128124;28;20310;-67
2021/12/28 09:19:00;;;;;;;0.77;0.67;;;7.10;99.90;;;;;;5127257;28;20220;-66
2021/12/28 09:21:27;;;;;;;0.40;0.40;;;7.10;99.90;;;;;;5127421;28;20278;-67
2021/12/28 09:23:54;;;;;;;0.57;0.57;;;7.10;99.90;;;;;;5123379;28;20200;-66
2021/12/28 09:26:21;;;;;;;1.43;0.70;;;7.10;99.90;;;;;;5127637;28;20271;-67
2021/12/28 09:28:49;;;;;;;1.40;0.70;;;7.10;99.90;;;;;;5126576;28;20202;-67
2021/12/28 09:31:16;;;;;;;0.60;0.60;;;7.10;99.90;;;;;;5125150;28;20263;-67
2021/12/28 09:33:43;;;;;;;0.40;0.40;;;7.10;99.90;;;;;;5127122;28;20260;-67
2021/12/28 09:36:14;;;;;;;0.47;0.47;;;7.20;99.90;;;;;;5126933;28;20703;-66
2021/12/28 09:38:41;;;;;;;0.60;0.60;;;7.20;99.90;;;;;;5126468;28;20184;-65
2021/12/28 09:41:08;;;;;;;0.93;0.70;;;7.20;99.90;;;;;;5127095;28;20574;-64
2021/12/28 09:43:35;;;;;;;0.90;0.80;;;7.20;99.90;;;;;;5126653;28;20219;-67
2021/12/28 09:46:04;;;;;;;0.50;0.50;;;7.20;99.90;;;;;;5127380;28;20231;-66
2021/12/28 09:48:31;;;;;;;0.60;0.60;;;7.20;99.90;;;;;;5127538;28;20235;-66
2021/12/28 09:50:59;;;;;;;0.40;0.40;;;7.20;99.90;;;;;;5127389;28;20212;-66
2021/12/28 09:53:26;;;;;;;0.90;0.80;;;7.20;99.90;;;;;;5125864;28;20231;-68
2021/12/28 09:55:53;;;;;;;1.37;1.27;;;7.20;99.90;;;;;;5126647;28;20233;-64
2021/12/28 09:58:20;;;;;;;1.03;0.63;;;7.30;99.90;;;;;;5126457;28;20267;-65
2021/12/28 10:00:47;;;;;;;0.60;0.60;;;7.30;99.90;;;;;;5126717;28;20235;-64
2021/12/28 10:03:16;;;;;;;1.00;1.00;;;7.30;99.90;;;;;;5126582;28;20210;-63
2021/12/28 10:05:43;;;;;;;0.57;0.57;;;7.30;99.90;;;;;;5126490;28;20304;-64
2021/12/28 10:08:10;;;;;;;1.80;1.37;;;7.30;99.90;;;;;;5126332;28;20199;-64
2021/12/28 10:10:41;;;;;;;3.57;1.93;;;7.30;99.90;;;;;;5125641;28;20207;-65
2021/12/28 10:13:19;;;;;;;0.83;0.80;;;7.30;99.90;;;;;;5126313;28;20256;-64
2021/12/28 10:15:48;;;;;;;1.20;1.10;;;7.40;99.90;;;;;;5126516;28;20196;-65
2021/12/28 10:18:17;;;;;;;0.70;0.70;;;7.40;99.90;;;;;;5126278;28;20310;-64
2021/12/28 10:20:50;;;;;;;1.30;0.90;;;7.50;99.90;;;;;;5126505;28;20203;-66
2021/12/28 10:23:19;;;;;;;1.60;0.90;;;7.50;99.90;;;;;;5125597;28;20184;-65
2021/12/28 10:25:48;;;;;;;0.70;0.70;;;7.50;99.90;;;;;;5126605;28;20291;-65
2021/12/28 10:28:17;;;;;;;0.77;0.77;;;7.60;99.90;;;;;;5125949;28;20234;-64
2021/12/28 10:30:46;;;;;;;2.17;1.40;;;7.70;99.90;;;;;;5126285;28;20259;-65
2021/12/28 10:33:15;;;;;;;1.37;1.27;;;7.70;99.90;;;;;;5126114;28;20259;-65
2021/12/28 10:35:45;;;;;;;1.30;1.20;;;7.80;99.90;;;;;;5126372;28;20204;-65
2021/12/28 10:38:15;;;;;;;1.03;0.93;;;7.80;99.90;;;;;;5125398;28;20188;-65
2021/12/28 10:40:45;;;;;;;1.63;1.07;;;7.90;99.90;;;;;;5126113;28;20293;-66
2021/12/28 10:43:17;;;;;;;0.73;0.73;;;7.90;99.90;;;;;;5125920;28;20252;-65
2021/12/28 10:45:47;;;;;;;0.57;0.57;;;7.90;99.90;;;;;;5126088;28;20238;-65
2021/12/28 10:48:16;;;;;;;2.87;1.60;;;8.00;99.90;;;;;;5125971;28;20306;-65
2021/12/28 10:50:47;;;;;;;1.50;1.20;;;8.00;99.90;;;;;;5126100;28;20294;-65
2021/12/28 10:53:20;;;;;;;1.97;1.00;;;8.00;99.90;;;;;;5125431;28;20199;-65
2021/12/28 10:55:50;;;;;;;1.60;1.30;;;8.00;99.90;;;;;;5125833;28;20199;-65
2021/12/28 10:58:23;;;;;;;1.43;1.00;;;8.10;99.90;;;;;;5125354;28;20219;-63
2021/12/28 11:00:50;;;;;;;0.83;0.77;;;8.10;99.90;;;;;;5125792;28;20271;-66
2021/12/28 11:03:29;;;;;;;1.97;1.50;;;8.10;99.90;;;;;;5125941;28;20286;-66
2021/12/28 11:06:00;;;;;;;9.07;3.20;;;8.10;99.90;;;;;;5125693;28;20210;-65
2021/12/28 11:08:29;;;;;;;2.60;1.43;;;8.20;99.90;;;;;;5125317;28;20266;-65
2021/12/28 11:10:59;;;;;;;1.43;1.30;;;8.20;99.90;;;;;;5125865;28;20291;-65
2021/12/28 11:13:28;;;;;;;1.20;0.90;;;8.30;99.90;;;;;;5125331;28;20223;-64
2021/12/28 11:15:56;;;;;;;0.67;0.67;;;8.30;99.90;;;;;;5125515;28;20196;-64
2021/12/28 11:18:28;;;;;;;1.03;0.93;;;8.30;99.90;;;;;;5125677;28;20263;-64
2021/12/28 11:20:56;;;;;;;0.77;0.77;;;8.40;99.90;;;;;;5125486;28;20229;-65
2021/12/28 11:23:26;;;;;;;1.30;0.63;;;8.40;99.90;;;;;;5124416;28;20199;-63
2021/12/28 11:26:13;;;;;;;0.40;0.30;;;8.40;99.90;;;;;;5125455;28;20226;-64
2021/12/28 11:28:42;;;;;;;4.17;1.77;;;8.50;99.90;;;;;;5124789;28;20271;-63
2021/12/28 11:31:14;;;;;;;1.00;0.93;;;8.50;99.90;;;;;;5125511;28;20204;-64
2021/12/28 11:33:47;;;;;;;0.50;0.50;;;8.40;99.90;;;;;;5125413;28;20247;-65
2021/12/28 11:36:15;;;;;;;0.30;0.30;;;8.40;99.90;;;;;;5125220;28;20230;-64
2021/12/28 11:38:44;;;;;;;0.30;0.30;;;8.40;99.90;;;;;;5124781;28;20196;-64
2021/12/28 11:41:12;;;;;;;0.30;0.30;;;8.40;99.90;;;;;;5125298;28;20262;-64
2021/12/28 11:43:41;;;;;;;0.53;0.53;;;8.40;99.90;;;;;;5124822;28;20268;-64
2021/12/28 11:46:09;;;;;;;1.33;0.83;;;8.40;99.90;;;;;;5125438;28;20227;-64
2021/12/28 11:48:37;;;;;;;0.70;0.70;;;8.50;99.90;;;;;;5125037;28;20609;-63
2021/12/28 11:51:05;;;;;;;2.63;0.90;;;8.50;99.90;;;;;;5124611;28;20207;-64
2021/12/28 11:53:37;;;;;;;1.33;0.87;;;8.60;99.90;;;;;;5123757;28;20220;-64
2021/12/28 11:56:08;;;;;;;3.03;1.47;;;8.60;99.90;;;;;;5124747;28;20211;-64
2021/12/28 11:58:56;;;;;;;2.50;1.00;;;8.60;99.90;;;;;;5124277;28;20550;-63
2021/12/28 12:01:46;;;;;;;2.73;0.70;;;8.70;99.90;;;;;;5124459;28;20207;-65
2021/12/28 12:04:46;;;;;;;1.00;0.60;;;8.70;99.90;;;;;;5119672;28;20286;-66
2021/12/28 12:07:22;;;;;;;0.83;0.83;;;8.70;99.90;;;;;;5125397;28;20195;-66
2021/12/28 12:10:20;;;;;;;1.00;0.90;;;8.70;99.90;;;;;;5124485;28;20290;-68
2021/12/28 12:13:26;;;;;;;0.40;0.40;;;8.70;99.90;;;;;;5125180;28;20458;-66
2021/12/28 12:15:56;;;;;;;0.43;0.43;;;8.70;99.90;;;;;;5124827;28;20290;-65
2021/12/28 12:18:27;;;;;;;0.40;0.40;;;8.70;99.90;;;;;;5124820;28;20762;-67
2021/12/28 12:21:05;;;;;;;0.20;0.20;;;8.60;99.90;;;;;;5125233;28;20442;-66
2021/12/28 12:23:43;;;;;;;0.40;0.40;;;8.60;99.90;;;;;;5123830;28;20188;-66
2021/12/28 12:26:17;;;;;;;0.30;0.30;;;8.60;99.90;;;;;;5124663;28;20211;-67
2021/12/28 12:28:49;;;;;;;0.97;0.30;;;8.70;99.90;;;;;;5123926;28;20232;-67
2021/12/28 12:31:31;;;;;;;0.20;0.20;;;8.70;99.90;;;;;;5124936;28;20297;-66
2021/12/28 12:34:00;;;;;;;0.30;0.30;;;8.70;99.90;;;;;;5126851;28;20282;-69
2021/12/28 12:36:41;;;;;;;0.10;0.10;;;8.80;99.90;;;;;;5128774;28;20196;-69
2021/12/28 12:39:09;;;;;;;0.53;0.53;;;8.80;99.90;;;;;;5127950;28;20441;-67
2021/12/28 12:41:43;;;;;;;0.50;0.50;;;8.80;99.90;;;;;;5128546;28;20238;-68
2021/12/28 12:44:14;;;;;;;0.30;0.30;;;8.80;99.90;;;;;;5128000;28;20234;-68
2021/12/28 12:46:44;;;;;;;0.30;0.30;;;8.80;99.90;;;;;;5129019;28;20210;-68
2021/12/28 12:49:14;;;;;;;3.10;1.13;;;8.80;99.90;;;;;;5128343;28;20253;-68
2021/12/28 12:51:53;;;;;;;0.87;0.70;;;8.80;99.90;;;;;;5128296;28;20200;-67
2021/12/28 12:54:27;;;;;;;0.47;0.47;;;8.80;99.90;;;;;;5127077;28;20218;-65
2021/12/28 12:57:09;;;;;;;1.50;0.50;;;8.80;99.90;;;;;;5128697;28;20295;-67
2021/12/28 12:59:52;;;;;;;0.57;0.40;;;8.70;99.90;;;;;;5127717;28;20690;-67
2021/12/28 13:02:29;;;;;;;0.70;0.50;;;8.80;99.90;;;;;;5127730;28;20267;-67
2021/12/28 13:05:12;;;;;;;0.30;0.30;;;8.70;99.90;;;;;;5127876;28;20673;-67
2021/12/28 13:07:39;;;;;;;0.47;0.40;;;8.70;99.90;;;;;;5128010;28;20216;-66